Time;durP1;ratioP1;P1;durP2;ratioP2;P2;SDS_P1;SDS_P2;PMS_P1;PMS_P2;Temp;Humidity;BMP_temperature;BMP_pressure;BME280_temperature;BME280_humidity;BME280_pressure;Samples;Min_cycle;Max_cycle;Signal;HPM_P1;HPM_P2
2023/11/26 00:00:20;;;;;;;1.10;0.50;;;4.20;99.90;;;;;;5055915;28;20567;-52
2023/11/26 00:02:47;;;;;;;0.60;0.30;;;4.10;99.90;;;;;;5057114;28;20448;-53
2023/11/26 00:05:14;;;;;;;0.75;0.50;;;4.10;99.90;;;;;;5054944;28;20511;-51
2023/11/26 00:07:42;;;;;;;0.70;0.40;;;4.10;99.90;;;;;;5056075;28;20923;-54
2023/11/26 00:10:10;;;;;;;1.20;0.40;;;4.20;99.90;;;;;;5056783;28;20421;-53
2023/11/26 00:12:37;;;;;;;3.10;0.43;;;4.20;99.90;;;;;;5056498;28;20433;-50
2023/11/26 00:15:08;;;;;;;0.80;0.40;;;4.20;99.90;;;;;;5055850;28;20425;-50
2023/11/26 00:17:37;;;;;;;0.90;0.40;;;4.20;99.90;;;;;;5055822;28;20825;-50
2023/11/26 00:20:06;;;;;;;1.27;0.50;;;4.20;99.90;;;;;;5055267;28;20464;-55
2023/11/26 00:22:33;;;;;;;0.80;0.50;;;4.00;99.90;;;;;;5055163;28;20432;-51
2023/11/26 00:25:01;;;;;;;1.20;0.50;;;4.10;99.90;;;;;;5055576;28;20445;-54
2023/11/26 00:27:28;;;;;;;1.00;0.50;;;4.10;99.90;;;;;;5055517;28;20814;-50
2023/11/26 00:29:56;;;;;;;0.95;0.50;;;4.00;99.90;;;;;;5055740;28;20486;-54
2023/11/26 00:32:23;;;;;;;1.45;0.50;;;3.90;99.90;;;;;;5055599;28;20508;-52
2023/11/26 00:34:52;;;;;;;0.80;0.50;;;3.80;99.90;;;;;;5057724;28;20528;-51
2023/11/26 00:37:20;;;;;;;1.17;0.40;;;3.90;99.90;;;;;;5056659;28;20421;-51
2023/11/26 00:39:47;;;;;;;1.02;0.50;;;3.90;99.90;;;;;;5056560;28;20417;-54
2023/11/26 00:42:14;;;;;;;0.70;0.47;;;4.00;99.90;;;;;;5056261;28;20966;-53
2023/11/26 00:44:41;;;;;;;2.50;0.40;;;4.00;99.90;;;;;;5057158;28;20796;-50
2023/11/26 00:47:09;;;;;;;0.80;0.45;;;4.10;99.90;;;;;;5055261;28;20487;-49
2023/11/26 00:49:36;;;;;;;1.50;0.50;;;4.20;99.90;;;;;;5055830;28;20512;-50
2023/11/26 00:52:05;;;;;;;2.00;0.50;;;4.10;99.90;;;;;;5055539;28;20528;-50
2023/11/26 00:54:33;;;;;;;1.20;0.40;;;4.10;99.90;;;;;;5055974;28;20453;-50
2023/11/26 00:57:00;;;;;;;1.80;0.50;;;4.00;99.90;;;;;;5056023;28;20457;-51
2023/11/26 00:59:27;;;;;;;2.00;0.40;;;4.10;99.90;;;;;;5055516;28;20516;-51
2023/11/26 01:01:54;;;;;;;2.50;0.50;;;4.10;99.90;;;;;;5056261;28;20515;-50
2023/11/26 01:04:22;;;;;;;1.50;0.50;;;4.10;99.90;;;;;;5055474;28;20429;-52
2023/11/26 01:06:49;;;;;;;1.40;0.50;;;4.20;99.90;;;;;;5056302;28;20433;-52
2023/11/26 01:09:18;;;;;;;1.20;0.40;;;4.30;99.90;;;;;;5055677;28;20432;-49
2023/11/26 01:11:45;;;;;;;1.20;0.40;;;4.30;99.90;;;;;;5055255;28;20516;-50
2023/11/26 01:14:13;;;;;;;1.50;0.50;;;4.30;99.90;;;;;;5055334;28;20437;-52
2023/11/26 01:16:40;;;;;;;0.80;0.50;;;4.30;99.90;;;;;;5054652;28;20837;-49
2023/11/26 01:19:08;;;;;;;0.70;0.40;;;4.30;99.90;;;;;;5053847;28;20520;-50
2023/11/26 01:21:35;;;;;;;0.90;0.50;;;4.30;99.90;;;;;;5054003;28;20417;-53
2023/11/26 01:24:03;;;;;;;0.70;0.40;;;4.40;99.90;;;;;;5053796;28;20420;-53
2023/11/26 01:26:32;;;;;;;1.00;0.38;;;4.30;99.90;;;;;;5053993;28;20429;-50
2023/11/26 01:28:59;;;;;;;1.23;0.43;;;4.40;99.90;;;;;;5054387;28;20492;-50
2023/11/26 01:31:27;;;;;;;0.80;0.50;;;4.40;99.90;;;;;;5054510;28;20487;-50
2023/11/26 01:33:54;;;;;;;1.37;0.50;;;4.40;99.90;;;;;;5055726;28;20512;-54
2023/11/26 01:36:21;;;;;;;0.70;0.40;;;4.30;99.90;;;;;;5054669;28;20781;-55
2023/11/26 01:38:48;;;;;;;1.50;0.50;;;4.30;99.90;;;;;;5055242;28;20524;-53
2023/11/26 01:41:15;;;;;;;1.02;0.50;;;4.40;99.90;;;;;;5054772;28;20885;-51
2023/11/26 01:43:44;;;;;;;1.70;0.50;;;4.30;99.90;;;;;;5054291;28;20425;-54
2023/11/26 01:46:13;;;;;;;1.15;0.40;;;4.30;99.90;;;;;;5054493;28;20454;-50
2023/11/26 01:48:42;;;;;;;0.80;0.40;;;4.30;99.90;;;;;;5054601;28;20456;-52
2023/11/26 01:51:12;;;;;;;1.20;0.40;;;4.30;99.90;;;;;;5054398;28;20457;-49
2023/11/26 01:53:45;;;;;;;1.88;0.47;;;4.40;99.90;;;;;;5055632;28;20437;-51
2023/11/26 01:56:13;;;;;;;0.80;0.50;;;4.20;99.90;;;;;;5055311;28;20426;-52
2023/11/26 01:58:41;;;;;;;0.60;0.40;;;4.20;99.90;;;;;;5055323;28;20429;-51
2023/11/26 02:01:11;;;;;;;0.52;0.30;;;4.30;99.90;;;;;;5052382;28;20504;-54
2023/11/26 02:03:38;;;;;;;0.60;0.40;;;4.30;99.90;;;;;;5053576;28;20884;-53
2023/11/26 02:06:07;;;;;;;0.60;0.38;;;4.30;99.90;;;;;;5052431;28;20896;-52
2023/11/26 02:08:34;;;;;;;1.30;0.40;;;4.30;99.90;;;;;;5053606;28;20769;-50
2023/11/26 02:11:02;;;;;;;0.60;0.40;;;4.30;99.90;;;;;;5053578;28;20464;-53
2023/11/26 02:13:30;;;;;;;1.20;0.43;;;4.30;99.90;;;;;;5054076;28;20433;-52
2023/11/26 02:15:57;;;;;;;0.90;0.40;;;4.20;99.90;;;;;;5053205;28;20424;-49
2023/11/26 02:18:26;;;;;;;2.40;0.47;;;4.20;99.90;;;;;;5053142;28;20508;-50
2023/11/26 02:20:54;;;;;;;0.75;0.40;;;4.20;99.90;;;;;;5052652;28;20780;-54
2023/11/26 02:23:21;;;;;;;0.70;0.40;;;4.10;99.90;;;;;;5052599;28;20472;-52
2023/11/26 02:25:49;;;;;;;0.90;0.50;;;4.00;99.90;;;;;;5053565;28;20504;-50
2023/11/26 02:28:16;;;;;;;0.70;0.40;;;3.90;99.90;;;;;;5054074;28;20429;-50
2023/11/26 02:30:44;;;;;;;1.40;0.50;;;3.90;99.90;;;;;;5053957;28;20429;-51
2023/11/26 02:33:11;;;;;;;0.70;0.40;;;3.90;99.90;;;;;;5052378;28;20528;-50
2023/11/26 02:35:38;;;;;;;1.00;0.40;;;3.80;99.90;;;;;;5054003;28;20533;-49
2023/11/26 02:38:05;;;;;;;1.88;0.40;;;3.70;99.90;;;;;;5053766;28;20457;-51
2023/11/26 02:40:32;;;;;;;2.00;0.40;;;3.70;99.90;;;;;;5054059;28;20806;-53
2023/11/26 02:43:02;;;;;;;1.30;0.40;;;3.60;99.90;;;;;;5054501;28;20503;-55
2023/11/26 02:45:30;;;;;;;0.90;0.40;;;3.60;99.90;;;;;;5054626;28;20431;-52
2023/11/26 02:47:57;;;;;;;1.13;0.30;;;3.60;99.90;;;;;;5054440;28;20508;-52
2023/11/26 02:50:24;;;;;;;1.40;0.40;;;3.60;99.90;;;;;;5053595;28;20453;-49
2023/11/26 02:52:51;;;;;;;0.70;0.40;;;3.50;99.90;;;;;;5053565;28;20516;-50
2023/11/26 02:55:19;;;;;;;1.70;0.40;;;3.50;99.90;;;;;;5053566;28;20443;-53
2023/11/26 02:57:46;;;;;;;0.63;0.40;;;3.50;99.90;;;;;;5053876;28;20524;-54
2023/11/26 03:00:16;;;;;;;2.70;0.40;;;3.50;99.90;;;;;;5053465;28;20532;-54
2023/11/26 03:02:44;;;;;;;0.50;0.30;;;3.50;99.90;;;;;;5053372;28;20429;-50
2023/11/26 03:05:17;;;;;;;0.85;0.30;;;3.40;99.90;;;;;;5054369;28;20840;-53
2023/11/26 03:07:46;;;;;;;0.60;0.30;;;3.40;99.90;;;;;;5054531;28;20425;-53
2023/11/26 03:13:12;;;;;;;0.60;0.30;;;3.50;99.90;;;;;;5053606;28;20437;-50
2023/11/26 03:15:42;;;;;;;0.50;0.30;;;3.60;99.90;;;;;;5053133;28;20430;-52
2023/11/26 03:18:12;;;;;;;1.02;0.40;;;3.60;99.90;;;;;;5053782;28;20475;-52
2023/11/26 03:20:41;;;;;;;0.80;0.30;;;3.70;99.90;;;;;;5054307;28;20463;-54
2023/11/26 03:23:10;;;;;;;0.63;0.30;;;3.60;99.90;;;;;;5053963;28;20805;-50
2023/11/26 03:25:38;;;;;;;0.95;0.30;;;3.60;99.90;;;;;;5054025;28;20436;-49
2023/11/26 03:28:05;;;;;;;1.02;0.30;;;3.50;99.90;;;;;;5054095;28;20516;-49
2023/11/26 03:30:34;;;;;;;0.70;0.30;;;3.50;99.90;;;;;;5053799;28;20463;-53
2023/11/26 03:33:03;;;;;;;0.60;0.30;;;3.50;99.90;;;;;;5053791;28;20557;-53
2023/11/26 03:35:30;;;;;;;0.93;0.30;;;3.50;99.90;;;;;;5057928;28;20432;-50
2023/11/26 03:37:58;;;;;;;0.57;0.30;;;3.50;99.90;;;;;;5057325;28;20421;-55
2023/11/26 03:40:25;;;;;;;0.80;0.40;;;3.60;99.90;;;;;;5056859;28;20517;-49
2023/11/26 03:42:52;;;;;;;0.80;0.35;;;3.60;99.90;;;;;;5055582;28;20615;-55
2023/11/26 03:45:19;;;;;;;1.10;0.30;;;3.70;99.90;;;;;;5056206;28;20429;-52
2023/11/26 03:47:47;;;;;;;0.95;0.30;;;3.70;99.90;;;;;;5056051;28;20832;-49
2023/11/26 03:50:15;;;;;;;1.10;0.30;;;3.60;99.90;;;;;;5055387;28;20452;-52
2023/11/26 03:52:43;;;;;;;0.80;0.30;;;3.50;99.90;;;;;;5055644;28;20495;-53
2023/11/26 03:55:10;;;;;;;0.50;0.20;;;3.50;99.90;;;;;;5056162;28;20425;-49
2023/11/26 03:57:38;;;;;;;0.60;0.20;;;3.50;99.90;;;;;;5057933;28;20846;-49
2023/11/26 04:00:08;;;;;;;0.50;0.30;;;3.60;99.90;;;;;;5057279;28;20433;-50
2023/11/26 04:02:35;;;;;;;0.80;0.20;;;3.70;99.90;;;;;;5057765;28;20472;-49
2023/11/26 04:05:04;;;;;;;0.50;0.25;;;3.80;99.90;;;;;;5057223;28;20766;-52
2023/11/26 04:07:32;;;;;;;0.65;0.28;;;3.80;99.90;;;;;;5058092;28;20890;-49
2023/11/26 04:09:59;;;;;;;1.30;0.30;;;3.80;99.90;;;;;;5056736;28;20486;-52
2023/11/26 04:12:28;;;;;;;0.50;0.20;;;3.80;99.90;;;;;;5056976;28;20519;-53
2023/11/26 04:14:57;;;;;;;0.60;0.20;;;4.00;99.90;;;;;;5056944;28;20437;-52
2023/11/26 04:17:26;;;;;;;0.70;0.20;;;4.00;99.90;;;;;;5057054;28;20432;-54
2023/11/26 04:19:54;;;;;;;0.30;0.20;;;3.90;99.90;;;;;;5056395;28;20421;-53
2023/11/26 04:22:23;;;;;;;1.50;0.27;;;3.90;99.90;;;;;;5056646;28;20429;-52
2023/11/26 04:24:52;;;;;;;0.40;0.20;;;4.00;99.90;;;;;;5056987;28;20470;-51
2023/11/26 04:27:21;;;;;;;1.00;0.20;;;3.90;99.90;;;;;;5057287;28;20429;-49
2023/11/26 04:29:49;;;;;;;0.50;0.20;;;3.90;99.90;;;;;;5056425;28;20433;-49
2023/11/26 04:32:16;;;;;;;0.40;0.20;;;4.00;99.90;;;;;;5056274;28;20418;-50
2023/11/26 04:34:44;;;;;;;0.55;0.20;;;4.10;99.90;;;;;;5056349;28;20656;-53
2023/11/26 04:37:11;;;;;;;0.40;0.30;;;4.20;99.90;;;;;;5055765;28;20516;-54
2023/11/26 04:39:39;;;;;;;0.50;0.20;;;4.20;99.90;;;;;;5056832;28;20728;-50
2023/11/26 04:42:08;;;;;;;0.50;0.20;;;4.10;99.90;;;;;;5057485;28;20436;-50
2023/11/26 04:44:38;;;;;;;0.40;0.20;;;4.10;99.90;;;;;;5054620;28;20511;-52
2023/11/26 04:47:07;;;;;;;0.50;0.20;;;4.20;99.90;;;;;;5056225;28;20788;-51
2023/11/26 04:49:34;;;;;;;0.40;0.30;;;4.20;99.90;;;;;;5056049;28;20465;-53
2023/11/26 04:52:02;;;;;;;0.60;0.30;;;4.20;99.90;;;;;;5056127;28;20899;-51
2023/11/26 04:54:29;;;;;;;1.17;0.20;;;4.20;99.90;;;;;;5056789;28;20441;-50
2023/11/26 04:56:56;;;;;;;0.60;0.30;;;4.20;99.90;;;;;;5055054;28;20518;-50
2023/11/26 04:59:25;;;;;;;0.40;0.20;;;4.20;99.90;;;;;;5055728;28;20511;-52
2023/11/26 05:01:55;;;;;;;0.60;0.20;;;4.20;99.90;;;;;;5056024;28;20724;-52
2023/11/26 05:04:23;;;;;;;0.50;0.20;;;4.10;99.90;;;;;;5055678;28;20914;-50
2023/11/26 05:06:52;;;;;;;1.80;0.30;;;4.10;99.90;;;;;;5054158;28;20426;-55
2023/11/26 05:09:20;;;;;;;1.05;0.30;;;4.00;99.90;;;;;;5056774;28;21036;-54
2023/11/26 05:11:48;;;;;;;0.50;0.20;;;3.80;99.90;;;;;;5056210;28;20429;-53
2023/11/26 05:14:15;;;;;;;0.40;0.20;;;3.70;99.90;;;;;;5055812;28;20519;-53
2023/11/26 05:16:43;;;;;;;0.60;0.20;;;3.70;99.90;;;;;;5055709;28;20499;-47
2023/11/26 05:19:12;;;;;;;2.60;0.20;;;3.70;99.90;;;;;;5056109;28;20516;-53
2023/11/26 05:21:39;;;;;;;0.82;0.20;;;3.80;99.90;;;;;;5054906;28;20510;-50
2023/11/26 05:24:07;;;;;;;0.68;0.20;;;4.00;99.90;;;;;;5053919;28;20504;-48
2023/11/26 05:26:35;;;;;;;0.60;0.20;;;4.10;99.90;;;;;;5054027;28;20750;-49
2023/11/26 05:29:03;;;;;;;0.40;0.20;;;4.20;99.90;;;;;;5054254;28;20744;-49
2023/11/26 05:31:30;;;;;;;0.55;0.20;;;4.00;99.90;;;;;;5054454;28;20496;-54
2023/11/26 05:33:59;;;;;;;1.33;0.20;;;4.00;99.90;;;;;;5054150;28;20438;-50
2023/11/26 05:36:26;;;;;;;1.10;0.20;;;4.00;99.90;;;;;;5054735;28;20445;-53
2023/11/26 05:38:53;;;;;;;0.50;0.20;;;4.10;99.90;;;;;;5055227;28;20429;-54
2023/11/26 05:41:21;;;;;;;0.40;0.20;;;4.10;99.90;;;;;;5055895;28;20543;-51
2023/11/26 05:43:48;;;;;;;0.40;0.20;;;4.10;99.90;;;;;;5054667;28;20516;-55
2023/11/26 05:46:15;;;;;;;0.50;0.20;;;4.00;99.90;;;;;;5053607;28;20429;-54
2023/11/26 05:48:43;;;;;;;0.50;0.20;;;4.00;99.90;;;;;;5054063;28;20425;-51
2023/11/26 05:51:11;;;;;;;0.60;0.30;;;4.00;99.90;;;;;;5054385;28;20519;-51
2023/11/26 05:53:39;;;;;;;0.60;0.20;;;3.80;99.90;;;;;;5054320;28;20520;-51
2023/11/26 05:56:07;;;;;;;0.70;0.30;;;3.70;99.90;;;;;;5054456;28;20509;-54
2023/11/26 05:58:34;;;;;;;0.63;0.20;;;3.60;99.90;;;;;;5054612;28;20421;-53
2023/11/26 06:01:02;;;;;;;0.40;0.20;;;3.50;99.90;;;;;;5054603;28;20483;-50
2023/11/26 06:03:31;;;;;;;0.40;0.20;;;3.50;99.90;;;;;;5055282;28;20429;-50
2023/11/26 06:05:59;;;;;;;1.50;0.50;;;3.40;99.90;;;;;;5066815;28;20441;-50
2023/11/26 06:08:29;;;;;;;1.02;0.30;;;3.40;99.90;;;;;;5074409;28;20498;-54
2023/11/26 06:10:56;;;;;;;0.52;0.28;;;3.50;99.90;;;;;;5075160;28;20506;-55
2023/11/26 06:13:24;;;;;;;2.10;0.20;;;3.50;99.90;;;;;;5075145;28;20431;-53
2023/11/26 06:15:51;;;;;;;0.90;0.20;;;3.60;99.90;;;;;;5074526;28;20477;-52
2023/11/26 06:18:18;;;;;;;0.30;0.10;;;3.70;99.90;;;;;;5074559;28;20740;-53
2023/11/26 06:20:46;;;;;;;0.40;0.20;;;3.70;99.90;;;;;;5074926;28;20734;-52
2023/11/26 06:23:13;;;;;;;0.50;0.20;;;3.70;99.90;;;;;;5074722;28;20890;-52
2023/11/26 06:25:42;;;;;;;0.50;0.20;;;3.80;99.90;;;;;;5074623;28;20416;-55
2023/11/26 06:28:10;;;;;;;0.88;0.20;;;3.70;99.90;;;;;;5074468;28;20489;-52
2023/11/26 06:30:37;;;;;;;1.00;0.20;;;3.70;99.90;;;;;;5074592;28;20718;-55
2023/11/26 06:33:05;;;;;;;0.50;0.20;;;3.70;99.90;;;;;;5075059;28;20510;-55
2023/11/26 06:35:33;;;;;;;0.30;0.20;;;3.70;99.90;;;;;;5073403;28;20427;-56
2023/11/26 06:38:02;;;;;;;0.50;0.20;;;3.70;99.90;;;;;;5074387;28;20419;-50
2023/11/26 06:40:30;;;;;;;0.52;0.20;;;3.70;99.90;;;;;;5074532;28;20453;-49
2023/11/26 06:42:59;;;;;;;0.50;0.20;;;3.60;99.90;;;;;;5074966;28;20680;-53
2023/11/26 06:45:26;;;;;;;0.80;0.30;;;3.70;99.90;;;;;;5074553;28;20593;-51
2023/11/26 06:47:54;;;;;;;0.70;0.30;;;3.80;99.90;;;;;;5074879;28;20427;-54
2023/11/26 06:50:22;;;;;;;0.70;0.30;;;3.90;99.90;;;;;;5093060;28;20428;-50
2023/11/26 06:52:49;;;;;;;0.60;0.20;;;3.90;99.90;;;;;;5095137;28;20694;-52
2023/11/26 06:55:16;;;;;;;0.40;0.20;;;3.90;99.90;;;;;;5094029;28;20524;-49
2023/11/26 06:57:44;;;;;;;1.00;0.30;;;3.80;99.90;;;;;;5092884;28;20516;-53
2023/11/26 07:00:14;;;;;;;0.40;0.20;;;3.80;99.90;;;;;;5092863;28;20430;-48
2023/11/26 07:02:41;;;;;;;0.60;0.30;;;3.90;99.90;;;;;;5095021;28;20425;-49
2023/11/26 07:05:09;;;;;;;0.60;0.20;;;4.00;99.90;;;;;;5093567;28;20497;-51
2023/11/26 07:07:36;;;;;;;0.50;0.30;;;4.10;99.90;;;;;;5094368;28;20441;-51
2023/11/26 07:10:04;;;;;;;0.60;0.20;;;4.00;99.90;;;;;;5087457;28;21205;-54
2023/11/26 07:12:32;;;;;;;0.80;0.30;;;3.90;99.90;;;;;;5073529;28;20486;-52
2023/11/26 07:15:01;;;;;;;1.10;0.30;;;3.80;99.90;;;;;;5072748;28;20455;-51
2023/11/26 07:17:29;;;;;;;0.90;0.20;;;3.90;99.90;;;;;;5071774;28;20419;-54
2023/11/26 07:19:57;;;;;;;0.40;0.20;;;4.00;99.90;;;;;;5071356;28;20519;-53
2023/11/26 07:22:25;;;;;;;0.70;0.30;;;4.00;99.90;;;;;;5071584;28;20506;-53
2023/11/26 07:24:53;;;;;;;0.60;0.30;;;4.00;99.90;;;;;;5070860;28;20428;-50
2023/11/26 07:27:20;;;;;;;0.50;0.30;;;4.10;99.90;;;;;;5070690;28;20427;-49
2023/11/26 07:29:47;;;;;;;0.60;0.30;;;4.10;99.90;;;;;;5070753;28;20870;-48
2023/11/26 07:32:15;;;;;;;0.90;0.30;;;4.20;99.90;;;;;;5070557;28;20778;-56
2023/11/26 07:34:44;;;;;;;0.60;0.30;;;4.20;99.90;;;;;;5072341;28;20746;-52
2023/11/26 07:37:12;;;;;;;1.20;0.30;;;4.30;99.90;;;;;;5071203;28;20469;-50
2023/11/26 07:39:40;;;;;;;0.90;0.30;;;4.30;99.90;;;;;;5073471;28;20480;-51
2023/11/26 07:42:07;;;;;;;0.70;0.32;;;4.40;99.90;;;;;;5072404;28;20428;-48
2023/11/26 07:44:35;;;;;;;0.90;0.30;;;4.40;99.90;;;;;;5072845;28;20466;-48
2023/11/26 07:47:02;;;;;;;0.60;0.30;;;4.20;99.90;;;;;;5073928;28;20490;-48
2023/11/26 07:49:31;;;;;;;1.58;0.30;;;4.40;99.90;;;;;;5061734;28;20722;-47
2023/11/26 07:51:59;;;;;;;0.60;0.40;;;4.40;99.90;;;;;;5053298;28;20717;-52
2023/11/26 07:54:27;;;;;;;0.50;0.30;;;4.50;99.90;;;;;;5054072;28;20440;-49
2023/11/26 07:56:54;;;;;;;0.50;0.30;;;4.50;99.90;;;;;;5053188;28;20519;-51
2023/11/26 07:59:21;;;;;;;0.60;0.30;;;4.50;99.90;;;;;;5052679;28;20433;-50
2023/11/26 08:01:50;;;;;;;1.20;0.40;;;4.50;99.90;;;;;;5053107;28;20452;-53
2023/11/26 08:04:18;;;;;;;1.73;0.50;;;4.40;99.90;;;;;;5052643;28;20421;-49
2023/11/26 08:06:47;;;;;;;1.00;0.40;;;4.50;99.90;;;;;;5053139;28;20421;-50
2023/11/26 08:09:16;;;;;;;1.60;0.40;;;4.40;99.90;;;;;;5051134;28;20774;-49
2023/11/26 08:11:43;;;;;;;0.70;0.40;;;4.40;99.90;;;;;;5051772;28;20769;-50
2023/11/26 08:14:12;;;;;;;0.70;0.40;;;4.50;99.90;;;;;;5050969;28;20427;-54
2023/11/26 08:16:40;;;;;;;2.00;0.40;;;4.50;99.90;;;;;;5049445;28;20422;-48
2023/11/26 08:19:12;;;;;;;1.80;0.40;;;4.70;99.90;;;;;;5048377;28;20575;-49
2023/11/26 08:21:39;;;;;;;1.30;0.40;;;4.70;99.90;;;;;;5052454;28;20429;-51
2023/11/26 08:24:13;;;;;;;0.77;0.40;;;4.60;99.90;;;;;;5053129;28;20448;-49
2023/11/26 08:26:45;;;;;;;1.17;0.50;;;4.80;99.90;;;;;;5054674;28;20512;-51
2023/11/26 08:29:13;;;;;;;0.70;0.40;;;4.80;99.90;;;;;;5055318;28;20448;-48
2023/11/26 08:31:42;;;;;;;1.38;0.47;;;4.60;99.90;;;;;;5056272;28;20429;-53
2023/11/26 08:34:10;;;;;;;0.80;0.50;;;4.60;99.90;;;;;;5056485;28;20429;-50
2023/11/26 08:36:42;;;;;;;1.90;0.50;;;4.50;99.90;;;;;;5055397;28;20429;-50
2023/11/26 08:39:19;;;;;;;1.35;0.50;;;4.40;99.90;;;;;;5055688;28;20429;-51
2023/11/26 08:41:48;;;;;;;1.30;0.70;;;4.50;99.90;;;;;;5056367;28;20452;-49
2023/11/26 08:44:15;;;;;;;1.50;0.50;;;4.40;99.90;;;;;;5055929;28;20413;-49
2023/11/26 08:46:43;;;;;;;1.27;0.50;;;4.50;99.90;;;;;;5056005;28;20410;-54
2023/11/26 08:49:10;;;;;;;0.70;0.40;;;4.70;99.90;;;;;;5054972;28;20425;-52
2023/11/26 08:51:37;;;;;;;1.70;0.50;;;4.60;99.90;;;;;;5055213;28;20876;-47
2023/11/26 08:54:04;;;;;;;0.70;0.50;;;4.70;99.90;;;;;;5054958;28;20512;-53
2023/11/26 08:56:31;;;;;;;0.83;0.50;;;4.80;99.90;;;;;;5054256;28;20874;-49
2023/11/26 08:59:00;;;;;;;0.90;0.50;;;4.70;99.90;;;;;;5052972;28;20504;-53
2023/11/26 09:01:27;;;;;;;1.10;0.50;;;4.70;99.90;;;;;;5052691;28;20483;-49
2023/11/26 09:03:54;;;;;;;1.00;0.50;;;4.70;99.90;;;;;;5053175;28;20517;-51
2023/11/26 09:06:21;;;;;;;1.20;0.50;;;4.80;99.90;;;;;;5052642;28;20421;-49
2023/11/26 09:08:50;;;;;;;1.75;0.50;;;4.90;99.90;;;;;;5053062;28;20524;-50
2023/11/26 09:11:16;;;;;;;0.82;0.50;;;4.90;99.90;;;;;;5053525;28;20439;-53
2023/11/26 09:13:43;;;;;;;0.80;0.50;;;5.10;99.90;;;;;;5055055;28;20483;-51
2023/11/26 09:16:12;;;;;;;1.23;0.50;;;5.10;99.90;;;;;;5054165;28;20860;-49
2023/11/26 09:18:39;;;;;;;1.60;0.60;;;5.20;99.90;;;;;;5054512;28;20514;-53
2023/11/26 09:21:07;;;;;;;1.10;0.50;;;5.40;99.90;;;;;;5054139;28;20532;-51
2023/11/26 09:23:36;;;;;;;1.80;0.50;;;5.30;99.90;;;;;;5054553;28;20512;-50
2023/11/26 09:26:04;;;;;;;1.35;0.50;;;5.30;99.90;;;;;;5053874;28;20632;-53
2023/11/26 09:28:31;;;;;;;0.77;0.50;;;5.50;99.90;;;;;;5053518;28;20468;-52
2023/11/26 09:30:58;;;;;;;1.30;0.60;;;5.60;99.90;;;;;;5053164;28;21012;-53
2023/11/26 09:33:27;;;;;;;1.73;0.50;;;5.60;99.90;;;;;;5053568;28;20421;-54
2023/11/26 09:35:54;;;;;;;1.43;0.50;;;5.70;99.90;;;;;;5052641;28;20934;-54
2023/11/26 09:38:21;;;;;;;1.15;0.60;;;5.50;99.90;;;;;;5052191;28;20528;-53
2023/11/26 09:40:49;;;;;;;1.83;0.50;;;5.60;99.90;;;;;;5053118;28;20504;-52
2023/11/26 09:43:17;;;;;;;0.88;0.40;;;5.60;99.90;;;;;;5052016;28;20521;-51
2023/11/26 09:45:46;;;;;;;1.00;0.40;;;5.70;99.90;;;;;;5051550;28;20425;-50
2023/11/26 09:48:13;;;;;;;1.10;0.40;;;5.80;99.90;;;;;;5052293;28;20524;-53
2023/11/26 09:50:42;;;;;;;0.80;0.50;;;6.00;99.90;;;;;;5053252;28;20912;-53
2023/11/26 09:53:10;;;;;;;1.00;0.60;;;5.80;99.90;;;;;;5053642;28;20432;-51
2023/11/26 09:55:39;;;;;;;1.20;0.52;;;5.70;99.90;;;;;;5054607;28;20494;-53
2023/11/26 09:58:07;;;;;;;0.80;0.40;;;5.90;99.90;;;;;;5053356;28;20755;-54
2023/11/26 10:00:34;;;;;;;1.00;0.47;;;6.00;99.90;;;;;;5053634;28;20486;-49
2023/11/26 10:03:02;;;;;;;0.60;0.40;;;5.90;99.90;;;;;;5052539;28;20791;-55
2023/11/26 10:05:31;;;;;;;1.00;0.50;;;5.90;99.90;;;;;;5052508;28;20417;-52
2023/11/26 10:08:00;;;;;;;1.70;0.40;;;6.00;99.90;;;;;;5051232;28;20421;-49
2023/11/26 10:10:28;;;;;;;1.70;0.50;;;6.00;99.90;;;;;;5051326;28;20425;-51
2023/11/26 10:12:57;;;;;;;0.70;0.50;;;5.80;99.90;;;;;;5052603;28;20506;-53
2023/11/26 10:15:26;;;;;;;1.70;0.60;;;5.70;99.90;;;;;;5052455;28;20437;-54
2023/11/26 10:18:02;;;;;;;1.10;0.60;;;5.80;99.90;;;;;;5052874;28;20787;-54
2023/11/26 10:20:30;;;;;;;2.10;0.70;;;5.60;99.90;;;;;;5052763;28;20429;-52
2023/11/26 10:22:58;;;;;;;2.65;0.60;;;5.70;99.90;;;;;;5053494;28;20678;-50
2023/11/26 10:25:26;;;;;;;1.00;0.60;;;5.80;99.90;;;;;;5052264;28;20493;-53
2023/11/26 10:27:55;;;;;;;1.00;0.50;;;5.90;99.90;;;;;;5052355;28;20525;-49
2023/11/26 10:30:28;;;;;;;1.00;0.60;;;5.90;99.90;;;;;;5052807;28;20433;-52
2023/11/26 10:33:01;;;;;;;1.50;0.63;;;5.90;99.90;;;;;;5052697;28;20421;-50
2023/11/26 10:35:45;;;;;;;1.10;0.60;;;6.00;99.90;;;;;;5051277;28;20673;-51
2023/11/26 10:38:14;;;;;;;1.00;0.50;;;6.10;99.90;;;;;;5051973;28;20549;-54
2023/11/26 10:40:42;;;;;;;1.80;0.60;;;6.30;99.90;;;;;;5051928;28;20516;-54
2023/11/26 10:43:11;;;;;;;0.88;0.60;;;6.50;99.90;;;;;;5051142;28;20430;-55
2023/11/26 10:45:38;;;;;;;1.80;0.70;;;6.70;99.90;;;;;;5053104;28;20500;-55
2023/11/26 10:48:09;;;;;;;1.00;0.60;;;6.80;99.90;;;;;;5052967;28;20512;-55
2023/11/26 10:50:44;;;;;;;0.90;0.50;;;6.90;99.90;;;;;;5053444;28;20429;-55
2023/11/26 10:53:23;;;;;;;1.67;0.68;;;6.90;99.90;;;;;;5053519;28;20768;-51
2023/11/26 10:55:53;;;;;;;2.20;0.50;;;7.00;99.90;;;;;;5052745;28;20433;-55
2023/11/26 10:58:22;;;;;;;1.83;0.50;;;7.10;99.90;;;;;;5053447;28;20425;-55
2023/11/26 11:00:53;;;;;;;0.70;0.50;;;7.20;99.90;;;;;;5051797;28;20420;-53
2023/11/26 11:03:21;;;;;;;1.30;0.40;;;7.30;99.90;;;;;;5052219;28;20437;-52
2023/11/26 11:05:48;;;;;;;0.90;0.50;;;7.20;99.90;;;;;;5052585;28;20499;-53
2023/11/26 11:08:17;;;;;;;1.00;0.40;;;7.20;99.90;;;;;;5053269;28;20508;-51
2023/11/26 11:10:58;;;;;;;2.13;0.50;;;7.00;99.90;;;;;;5052081;28;20424;-52
2023/11/26 11:13:27;;;;;;;1.08;0.50;;;7.10;99.90;;;;;;5052493;28;20470;-52
2023/11/26 11:15:54;;;;;;;1.10;0.50;;;6.90;99.90;;;;;;5050958;28;20441;-54
2023/11/26 11:18:45;;;;;;;2.10;0.60;;;6.80;99.90;;;;;;5053533;28;20432;-50
2023/11/26 11:21:16;;;;;;;1.30;0.60;;;6.70;99.90;;;;;;5052689;28;20437;-53
2023/11/26 11:23:46;;;;;;;2.28;0.40;;;6.70;99.90;;;;;;5050412;28;21164;-53
2023/11/26 11:26:15;;;;;;;1.50;0.60;;;6.60;99.90;;;;;;5051947;28;20858;-54
2023/11/26 11:28:43;;;;;;;1.40;0.70;;;6.60;99.90;;;;;;5052859;28;20428;-54
2023/11/26 11:31:11;;;;;;;1.83;0.60;;;6.70;99.90;;;;;;5051580;28;20448;-51
2023/11/26 11:34:15;;;;;;;0.70;0.50;;;6.80;99.90;;;;;;5052837;28;20464;-55
2023/11/26 11:36:53;;;;;;;1.80;0.40;;;6.70;99.90;;;;;;5036716;28;20551;-52
2023/11/26 11:39:25;;;;;;;2.00;0.50;;;6.70;99.90;;;;;;5049027;28;20425;-49
2023/11/26 11:42:12;;;;;;;0.80;0.50;;;6.70;99.90;;;;;;5049192;28;20432;-53
2023/11/26 11:44:41;;;;;;;1.13;0.40;;;6.70;99.90;;;;;;5046433;28;20538;-56
2023/11/26 11:47:09;;;;;;;1.55;0.40;;;6.70;99.90;;;;;;5049166;28;20424;-52
2023/11/26 11:50:06;;;;;;;0.90;0.40;;;6.60;99.90;;;;;;5061537;28;20461;-55
2023/11/26 11:52:34;;;;;;;0.90;0.60;;;6.70;99.90;;;;;;5068494;28;20763;-55
2023/11/26 11:55:33;;;;;;;0.90;0.60;;;6.80;99.90;;;;;;5071217;28;20733;-55
2023/11/26 11:58:11;;;;;;;0.70;0.50;;;6.80;99.90;;;;;;5058733;28;20438;-55
2023/11/26 12:00:38;;;;;;;1.80;0.50;;;6.90;99.90;;;;;;5074060;28;20454;-55
2023/11/26 12:03:06;;;;;;;1.40;0.50;;;7.00;99.90;;;;;;5083809;28;20854;-56
2023/11/26 12:05:33;;;;;;;1.65;0.40;;;6.90;99.90;;;;;;5058277;28;20818;-56
2023/11/26 12:08:01;;;;;;;0.93;0.47;;;7.00;99.90;;;;;;5072517;28;20441;-55
2023/11/26 12:10:31;;;;;;;1.08;0.40;;;7.10;99.90;;;;;;5074475;28;20424;-52
2023/11/26 12:13:05;;;;;;;1.27;0.55;;;7.00;99.90;;;;;;5078601;28;20435;-53
2023/11/26 12:15:34;;;;;;;1.30;0.50;;;7.00;99.90;;;;;;5074808;28;20427;-53
2023/11/26 12:18:01;;;;;;;2.97;0.50;;;7.00;99.90;;;;;;5073649;28;20428;-55
2023/11/26 12:20:29;;;;;;;1.80;0.50;;;7.00;99.90;;;;;;5080667;28;20569;-54
2023/11/26 12:22:56;;;;;;;0.90;0.50;;;6.90;99.90;;;;;;5070221;28;20456;-52
2023/11/26 12:25:24;;;;;;;1.40;0.47;;;6.90;99.90;;;;;;5073560;28;20430;-55
2023/11/26 12:28:04;;;;;;;1.05;0.50;;;6.80;99.90;;;;;;5076157;28;20506;-56
2023/11/26 12:30:32;;;;;;;1.00;0.50;;;6.80;99.90;;;;;;5075011;28;20753;-54
2023/11/26 12:32:59;;;;;;;1.00;0.40;;;6.80;99.90;;;;;;5074604;28;20431;-56
2023/11/26 12:35:28;;;;;;;1.30;0.50;;;6.90;99.90;;;;;;5076864;28;20431;-54
2023/11/26 12:37:58;;;;;;;1.20;0.50;;;7.10;99.90;;;;;;5089608;28;20757;-55
2023/11/26 12:40:25;;;;;;;0.60;0.40;;;7.20;99.90;;;;;;5076226;28;20493;-55
2023/11/26 12:42:53;;;;;;;0.80;0.40;;;7.20;99.90;;;;;;5089271;28;20461;-56
2023/11/26 12:45:22;;;;;;;0.90;0.30;;;7.10;99.90;;;;;;5076222;28;20809;-55
2023/11/26 12:47:51;;;;;;;0.70;0.40;;;6.90;99.90;;;;;;5086660;28;20427;-56
2023/11/26 12:50:18;;;;;;;0.70;0.40;;;6.80;99.90;;;;;;5070287;28;20879;-54
2023/11/26 12:52:47;;;;;;;1.10;0.40;;;6.80;99.90;;;;;;5065882;28;20420;-56
2023/11/26 12:55:14;;;;;;;1.52;0.50;;;7.00;99.90;;;;;;5071849;28;20510;-54
2023/11/26 12:57:42;;;;;;;0.70;0.40;;;7.10;99.90;;;;;;5060532;28;20742;-56
2023/11/26 13:00:11;;;;;;;1.48;0.30;;;7.30;99.90;;;;;;5074500;28;20527;-55
2023/11/26 13:02:41;;;;;;;0.70;0.30;;;7.40;99.90;;;;;;5074282;28;20486;-51
2023/11/26 13:05:36;;;;;;;0.70;0.38;;;7.40;99.90;;;;;;5074025;28;20415;-55
2023/11/26 13:08:18;;;;;;;0.68;0.30;;;7.20;99.90;;;;;;5035132;28;20505;-54